createdAt,value
2022-10-06T00:02:35.974Z,98747.97
2022-10-06T00:05:38.266Z,98754.91
2022-10-06T00:08:41.402Z,98748.59
2022-10-06T00:11:43.802Z,98749.63
2022-10-06T00:14:45.948Z,98756.88
2022-10-06T00:17:48.162Z,98746.19
2022-10-06T00:20:58.336Z,98753.78
2022-10-06T00:24:00.383Z,98774.78
2022-10-06T00:27:02.519Z,98773.59
2022-10-06T00:30:05.938Z,98757.41
2022-10-06T00:33:10.433Z,98779.38
2022-10-06T00:36:12.534Z,98769.88
2022-10-06T00:39:14.732Z,98779.09
2022-10-06T00:42:31.534Z,98806.13
2022-10-06T00:45:46.491Z,98813.66
2022-10-06T00:48:52.834Z,98809.91
2022-10-06T00:52:04.968Z,98820.88
2022-10-06T00:55:10.594Z,98812.94
2022-10-06T00:58:13.395Z,98832.44
2022-10-06T01:01:15.525Z,98818.78
2022-10-06T01:04:17.916Z,98816.84
2022-10-06T01:07:20.091Z,98834.13
2022-10-06T01:10:22.264Z,98844.34
2022-10-06T01:13:24.395Z,98836.63
2022-10-06T01:16:27.118Z,98851.66
2022-10-06T01:20:00.205Z,98862.72
2022-10-06T01:23:06.695Z,98855.16
2022-10-06T01:26:10.730Z,98864.22
2022-10-06T01:29:12.968Z,98873.03
2022-10-06T01:32:15.182Z,98874.34
2022-10-06T01:35:17.396Z,98877.19
2022-10-06T01:38:20.354Z,98876.19
2022-10-06T01:41:27.697Z,98886.69
2022-10-06T01:44:30.127Z,98889.19
2022-10-06T01:47:33.201Z,98876.69
2022-10-06T01:50:35.267Z,98881.41
2022-10-06T01:53:37.374Z,98880.56
2022-10-06T01:56:40.312Z,98890.94
2022-10-06T01:59:42.937Z,98892.41
2022-10-06T02:02:45.098Z,98886.78
2022-10-06T02:05:47.187Z,98891.28
2022-10-06T02:08:49.352Z,98890.38
2022-10-06T02:11:52.631Z,98887.06
2022-10-06T02:14:54.702Z,98883.41
2022-10-06T02:17:56.771Z,98879.00
2022-10-06T02:21:02.539Z,98889.44
2022-10-06T02:24:04.916Z,98890.88
2022-10-06T02:27:08.062Z,98885.13
2022-10-06T02:30:11.502Z,98889.47
2022-10-06T02:33:13.637Z,98885.28
2022-10-06T02:36:16.731Z,98893.31
2022-10-06T02:39:19.195Z,98891.53
2022-10-06T02:42:21.676Z,98873.66
2022-10-06T02:45:23.755Z,98879.78
2022-10-06T02:48:26.674Z,98875.66
2022-10-06T02:51:32.342Z,98881.28
2022-10-06T02:54:36.763Z,98880.56
2022-10-06T02:57:39.380Z,98881.22
2022-10-06T03:00:42.049Z,98884.06
2022-10-06T03:03:44.501Z,98899.47
2022-10-06T03:06:46.806Z,98898.34
2022-10-06T03:09:55.319Z,98905.41
2022-10-06T03:12:59.589Z,98907.31
2022-10-06T03:16:04.141Z,98914.81
2022-10-06T03:19:07.382Z,98911.00
2022-10-06T03:22:10.621Z,98910.41
2022-10-06T03:25:21.396Z,98909.72
2022-10-06T03:28:23.693Z,98915.81
2022-10-06T03:31:26.484Z,98905.69
2022-10-06T03:34:29.036Z,98921.84
2022-10-06T03:37:33.102Z,98918.84
2022-10-06T03:40:35.204Z,98923.81
2022-10-06T03:43:37.804Z,98915.72
2022-10-06T03:46:40.984Z,98914.34
2022-10-06T03:49:43.514Z,98910.19
2022-10-06T03:52:51.253Z,98908.56
2022-10-06T03:56:11.316Z,98907.09
2022-10-06T03:59:16.456Z,98900.84
2022-10-06T04:02:20.527Z,98887.97
2022-10-06T04:05:22.737Z,98893.22
2022-10-06T04:08:25.436Z,98891.03
2022-10-06T04:11:29.974Z,98892.59
2022-10-06T04:14:32.052Z,98890.47
2022-10-06T04:17:35.024Z,98890.84
2022-10-06T04:20:37.438Z,98900.69
2022-10-06T04:23:39.914Z,98895.69
2022-10-06T04:26:48.841Z,98901.41
2022-10-06T04:29:52.144Z,98899.56
2022-10-06T04:32:55.064Z,98903.41
2022-10-06T04:36:02.259Z,98907.19
2022-10-06T04:39:05.159Z,98915.09
2022-10-06T04:42:08.702Z,98908.56
2022-10-06T04:45:11.861Z,98913.91
2022-10-06T04:48:15.630Z,98916.03
2022-10-06T04:51:18.177Z,98919.69
2022-10-06T04:54:20.853Z,98917.28
2022-10-06T04:57:26.363Z,98921.63
2022-10-06T05:00:28.879Z,98906.91
2022-10-06T05:03:32.267Z,98905.78
2022-10-06T05:06:39.833Z,98915.91
2022-10-06T05:09:42.447Z,98936.28
2022-10-06T05:12:45.304Z,98932.00
2022-10-06T05:16:01.974Z,98925.59
2022-10-06T05:19:08.272Z,98926.56
2022-10-06T05:22:13.035Z,98921.03
2022-10-06T05:25:15.631Z,98942.38
2022-10-06T05:28:17.721Z,98932.59
2022-10-06T05:31:22.423Z,98943.97
2022-10-06T05:34:24.760Z,98927.44
2022-10-06T05:37:27.129Z,98929.03
2022-10-06T05:40:29.725Z,98931.44
2022-10-06T05:43:32.574Z,98939.28
2022-10-06T05:46:35.130Z,98938.59
2022-10-06T05:49:37.183Z,98933.31
2022-10-06T05:52:40.518Z,98929.66
2022-10-06T05:55:43.492Z,98933.44
2022-10-06T05:58:51.367Z,98931.47
2022-10-06T06:01:54.429Z,98930.91
2022-10-06T06:05:05.463Z,98934.47
2022-10-06T06:08:07.672Z,98922.94
2022-10-06T06:11:10.086Z,98929.75
2022-10-06T06:14:17.752Z,98933.31
2022-10-06T06:17:20.459Z,98936.91
2022-10-06T06:20:22.676Z,98934.00
2022-10-06T06:23:25.254Z,98922.59
2022-10-06T06:26:32.890Z,98935.28
2022-10-06T06:29:34.915Z,98932.66
2022-10-06T06:32:37.155Z,98936.91
2022-10-06T06:35:40.025Z,98942.44
2022-10-06T06:38:43.714Z,98947.63
2022-10-06T06:41:46.240Z,98951.31
2022-10-06T06:45:09.347Z,98949.09
2022-10-06T06:48:16.120Z,98955.53
2022-10-06T06:51:22.997Z,98963.84
2022-10-06T06:54:27.698Z,98969.63
2022-10-06T06:57:35.685Z,98965.09
2022-10-06T07:00:39.007Z,98968.34
2022-10-06T07:03:57.009Z,98977.63
2022-10-06T07:06:59.895Z,98976.63
2022-10-06T07:10:05.609Z,99002.88
2022-10-06T07:13:11.566Z,98998.75
2022-10-06T07:16:34.504Z,99001.00
2022-10-06T07:19:55.561Z,98999.59
2022-10-06T07:23:16.503Z,99039.66
2022-10-06T07:26:18.668Z,99012.81
2022-10-06T07:29:21.780Z,99013.28
2022-10-06T07:32:30.783Z,99018.25
2022-10-06T07:35:33.123Z,99023.59
2022-10-06T07:38:36.314Z,99026.97
2022-10-06T07:41:38.535Z,99029.94
2022-10-06T07:44:44.090Z,99036.63
2022-10-06T07:47:46.156Z,99030.59
2022-10-06T07:50:51.579Z,99021.22
2022-10-06T07:53:58.616Z,99022.50
2022-10-06T07:57:08.111Z,99023.34
2022-10-06T08:00:17.104Z,99026.06
2022-10-06T08:03:20.036Z,99011.34
2022-10-06T08:06:23.677Z,99028.13
2022-10-06T08:09:25.751Z,99043.19
2022-10-06T08:12:33.971Z,99041.22
2022-10-06T08:15:36.113Z,99047.53
2022-10-06T08:18:46.559Z,99041.34
2022-10-06T08:21:49.044Z,99043.06
2022-10-06T08:25:08.630Z,99043.63
2022-10-06T08:28:11.609Z,99065.41
2022-10-06T08:31:15.766Z,99041.81
2022-10-06T08:34:18.955Z,99053.16
2022-10-06T08:37:26.830Z,99046.81
2022-10-06T08:40:29.218Z,99067.31
2022-10-06T08:43:31.305Z,99066.50
2022-10-06T08:46:40.566Z,99072.63
2022-10-06T08:49:47.826Z,99064.16
2022-10-06T08:53:21.718Z,99067.31
2022-10-06T08:56:27.133Z,99059.06
2022-10-06T08:59:32.027Z,99070.88
2022-10-06T09:02:41.735Z,99070.84
2022-10-06T09:05:43.853Z,99059.91
2022-10-06T09:09:13.786Z,99063.25
2022-10-06T09:12:43.574Z,99083.81
2022-10-06T09:15:51.033Z,99087.47
2022-10-06T09:19:08.337Z,99102.47
2022-10-06T09:22:20.814Z,99099.72
2022-10-06T09:25:28.059Z,99116.44
2022-10-06T09:28:30.169Z,99114.03
2022-10-06T09:31:50.511Z,99117.97
2022-10-06T09:35:02.625Z,99110.38
2022-10-06T09:38:08.559Z,99136.84
2022-10-06T09:41:11.827Z,99132.88
2022-10-06T09:44:29.370Z,99125.19
2022-10-06T09:47:35.269Z,99139.44
2022-10-06T09:50:37.341Z,99144.50
2022-10-06T09:53:40.252Z,99158.59
2022-10-06T09:56:43.494Z,99138.22
2022-10-06T09:59:46.533Z,99151.06
2022-10-06T10:02:48.642Z,99146.91
2022-10-06T10:05:51.447Z,99165.91
2022-10-06T10:09:21.854Z,99199.69
2022-10-06T10:12:30.185Z,99163.47
2022-10-06T10:15:58.467Z,99163.72
2022-10-06T10:19:02.073Z,99156.66
2022-10-06T10:22:04.314Z,99162.44
2022-10-06T10:25:28.404Z,99167.69
2022-10-06T10:28:48.130Z,99170.75
2022-10-06T10:32:50.353Z,99160.22
2022-10-06T10:35:53.034Z,99158.38
2022-10-06T10:38:55.122Z,99181.75
2022-10-06T10:41:57.195Z,99156.94
2022-10-06T10:45:05.991Z,99168.88
2022-10-06T10:48:15.842Z,99163.69
2022-10-06T10:51:57.695Z,99202.06
2022-10-06T10:55:30.356Z,99175.28
2022-10-06T10:58:43.044Z,99158.88
2022-10-06T11:02:13.203Z,99184.69
2022-10-06T11:05:43.079Z,99167.06
2022-10-06T11:09:10.154Z,99170.13
2022-10-06T11:12:36.444Z,99172.84
2022-10-06T11:16:18.120Z,99193.16
2022-10-06T11:19:52.851Z,99180.03
2022-10-06T11:23:14.967Z,99179.91
2022-10-06T11:26:54.091Z,99156.69
2022-10-06T11:30:15.843Z,99170.38
2022-10-06T11:33:21.070Z,99174.72
2022-10-06T11:37:02.667Z,99170.94
2022-10-06T11:40:17.427Z,99163.69
2022-10-06T11:44:00.526Z,99143.75
2022-10-06T11:47:07.418Z,99156.41
2022-10-06T11:50:38.993Z,99200.41
2022-10-06T11:53:41.313Z,99160.47
2022-10-06T11:56:43.617Z,99157.09
2022-10-06T11:59:45.650Z,99178.13
2022-10-06T12:02:48.014Z,99158.53
2022-10-06T12:05:56.247Z,99160.25
2022-10-06T12:08:59.023Z,99178.09
2022-10-06T12:12:19.687Z,99222.53
2022-10-06T12:19:19.459Z,99167.06
2022-10-06T12:22:31.927Z,99184.03
2022-10-06T12:26:21.723Z,99180.22
2022-10-06T12:30:00.924Z,99178.75
2022-10-06T12:33:05.767Z,99154.38
2022-10-06T12:36:29.709Z,99160.06
2022-10-06T12:39:31.850Z,99175.31
2022-10-06T12:42:34.424Z,99172.00
2022-10-06T12:45:36.479Z,99202.22
2022-10-06T12:49:03.334Z,99161.38
2022-10-06T12:52:14.555Z,99178.69
2022-10-06T12:56:00.608Z,99189.66
2022-10-06T12:59:34.918Z,99183.53
2022-10-06T13:02:37.045Z,99152.00
2022-10-06T13:05:39.297Z,99151.78
2022-10-06T13:08:41.777Z,99160.00
2022-10-06T13:11:43.803Z,99189.06
2022-10-06T13:14:47.360Z,99163.47
2022-10-06T13:18:22.062Z,99164.03
2022-10-06T13:21:24.310Z,99181.50
2022-10-06T13:24:26.965Z,99169.66
2022-10-06T13:27:29.084Z,99175.78
2022-10-06T13:30:37.678Z,99184.88
2022-10-06T13:33:43.506Z,99195.75
2022-10-06T13:36:49.424Z,99184.38
2022-10-06T13:39:51.620Z,99187.97
2022-10-06T13:42:55.933Z,99216.97
2022-10-06T13:45:58.135Z,99190.13
2022-10-06T13:49:16.145Z,99222.44
2022-10-06T13:52:34.864Z,99200.19
2022-10-06T13:55:36.909Z,99199.31
2022-10-06T13:58:38.948Z,99184.47
2022-10-06T14:01:41.100Z,99187.16
2022-10-06T14:04:43.286Z,99178.09
2022-10-06T14:07:45.443Z,99221.59
2022-10-06T14:10:55.238Z,99175.78
2022-10-06T14:14:00.476Z,99146.66
2022-10-06T14:17:02.607Z,99148.78
2022-10-06T14:20:23.956Z,99158.75
2022-10-06T14:23:33.648Z,99172.94
2022-10-06T14:26:36.216Z,99160.94
2022-10-06T14:29:41.251Z,99166.81
2022-10-06T14:32:43.307Z,99179.03
2022-10-06T14:35:45.479Z,99174.56
2022-10-06T14:38:50.430Z,99177.69
2022-10-06T14:41:52.717Z,99171.78
2022-10-06T14:44:54.818Z,99186.28
2022-10-06T14:47:57.543Z,99172.97
2022-10-06T14:51:03.907Z,99175.75
2022-10-06T14:54:08.350Z,99182.53
2022-10-06T14:57:10.656Z,99165.47
2022-10-06T15:00:14.869Z,99190.59
2022-10-06T15:03:17.118Z,99181.88
2022-10-06T15:06:37.902Z,99166.84
2022-10-06T15:09:39.966Z,99173.78
2022-10-06T15:12:42.026Z,99162.09
2022-10-06T15:15:47.434Z,99164.59
2022-10-06T15:18:52.383Z,99143.66
2022-10-06T15:21:54.538Z,99163.66
2022-10-06T15:24:56.756Z,99166.38
2022-10-06T15:28:18.754Z,99143.81
2022-10-06T15:31:24.898Z,99132.75
2022-10-06T15:34:28.747Z,99140.09
2022-10-06T15:37:30.987Z,99131.34
2022-10-06T15:40:33.061Z,99138.06
2022-10-06T15:43:53.750Z,99114.00
2022-10-06T15:46:56.293Z,99127.88
2022-10-06T15:49:58.462Z,99119.31
2022-10-06T15:53:00.546Z,99120.97
2022-10-06T15:56:02.650Z,99133.78
2022-10-06T15:59:05.962Z,99133.50
2022-10-06T16:02:14.695Z,99114.09
2022-10-06T16:05:49.544Z,99119.09
2022-10-06T16:08:51.591Z,99110.06
2022-10-06T16:11:54.187Z,99102.19
2022-10-06T16:14:56.258Z,99112.19
2022-10-06T16:17:58.479Z,99101.09
2022-10-06T16:21:00.742Z,99106.13
2022-10-06T16:24:03.073Z,99092.22
2022-10-06T16:27:05.645Z,99101.94
2022-10-06T16:30:08.823Z,99102.75
2022-10-06T16:33:10.989Z,99093.63
2022-10-06T16:36:14.734Z,99081.28
2022-10-06T16:39:21.909Z,99076.41
2022-10-06T16:42:24.686Z,99091.75
2022-10-06T16:45:26.802Z,99083.00
2022-10-06T16:48:34.104Z,99069.88
2022-10-06T16:51:38.259Z,99072.31
2022-10-06T16:54:40.389Z,99069.72
2022-10-06T16:57:42.445Z,99067.44
2022-10-06T17:00:44.562Z,99062.66
2022-10-06T17:03:46.719Z,99059.38
2022-10-06T17:06:53.727Z,99074.00
2022-10-06T17:10:19.039Z,99052.06
2022-10-06T17:13:18.091Z,99068.91
2022-10-06T17:16:24.816Z,99080.59
2022-10-06T17:19:29.053Z,99076.69
2022-10-06T17:22:31.387Z,99070.19
2022-10-06T17:25:33.904Z,99075.25
2022-10-06T17:28:36.547Z,99072.22
2022-10-06T17:31:40.705Z,99069.56
2022-10-06T17:34:42.923Z,99069.47
2022-10-06T17:37:45.129Z,99066.44
2022-10-06T17:40:47.206Z,99073.25
2022-10-06T17:43:50.399Z,99076.41
2022-10-06T17:46:57.379Z,99064.78
2022-10-06T17:50:00.531Z,99079.06
2022-10-06T17:53:02.652Z,99075.75
2022-10-06T17:56:09.255Z,99077.44
2022-10-06T17:59:19.002Z,99105.13
2022-10-06T18:02:21.180Z,99060.69
2022-10-06T18:05:24.060Z,99062.94
2022-10-06T18:08:27.151Z,99065.84
2022-10-06T18:11:33.194Z,99063.38
2022-10-06T18:14:35.326Z,99058.88
2022-10-06T18:17:37.412Z,99056.59
2022-10-06T18:20:41.231Z,99059.63
2022-10-06T18:23:43.554Z,99072.50
2022-10-06T18:26:48.205Z,99062.66
2022-10-06T18:29:50.331Z,99056.44
2022-10-06T18:35:19.063Z,99043.50
2022-10-06T18:36:15.529Z,99048.16
2022-10-06T18:39:17.799Z,99053.59
2022-10-06T18:42:20.130Z,99044.72
2022-10-06T18:45:40.980Z,99037.44
2022-10-06T18:48:55.374Z,99035.34
2022-10-06T18:51:58.427Z,99031.97
2022-10-06T18:55:00.792Z,99031.94
2022-10-06T18:58:04.582Z,99030.31
2022-10-06T19:01:07.450Z,99035.31
2022-10-06T19:04:10.602Z,99038.84
2022-10-06T19:07:12.725Z,99020.16
2022-10-06T19:10:14.834Z,99029.53
2022-10-06T19:13:17.010Z,99035.22
2022-10-06T19:16:20.509Z,99032.84
2022-10-06T19:19:22.975Z,99028.19
2022-10-06T19:22:25.204Z,99033.47
2022-10-06T19:25:27.257Z,99025.97
2022-10-06T19:28:31.526Z,99034.56
2022-10-06T19:31:34.934Z,99021.31
2022-10-06T19:34:37.392Z,99035.59
2022-10-06T19:37:39.509Z,99016.75
2022-10-06T19:40:41.599Z,99013.66
2022-10-06T19:43:43.796Z,99028.88
2022-10-06T19:46:45.832Z,99026.72
2022-10-06T19:49:47.875Z,99018.50
2022-10-06T19:52:51.693Z,99014.63
2022-10-06T19:56:01.486Z,99030.63
2022-10-06T19:59:04.050Z,99002.13
2022-10-06T20:02:10.203Z,99007.19
2022-10-06T20:05:14.396Z,99001.69
2022-10-06T20:08:16.462Z,98993.19
2022-10-06T20:11:21.222Z,99027.59
2022-10-06T20:14:24.083Z,99010.50
2022-10-06T20:17:26.175Z,99000.84
2022-10-06T20:20:28.475Z,99013.72
2022-10-06T20:23:31.891Z,99003.00
2022-10-06T20:26:37.839Z,98999.25
2022-10-06T20:29:39.876Z,99005.41
2022-10-06T20:32:41.990Z,98987.63
2022-10-06T20:35:44.122Z,98990.41
2022-10-06T20:39:04.731Z,98990.91
2022-10-06T20:42:10.574Z,99001.31
2022-10-06T20:45:16.019Z,99010.28
2022-10-06T20:48:18.355Z,98997.75
2022-10-06T20:51:23.138Z,99001.50
2022-10-06T20:54:34.876Z,98993.44
2022-10-06T20:57:37.147Z,98996.91
2022-10-06T21:00:39.269Z,98982.13
2022-10-06T21:03:49.126Z,98991.94
2022-10-06T21:06:51.158Z,98966.31
2022-10-06T21:09:53.205Z,98971.69
2022-10-06T21:12:55.829Z,98961.81
2022-10-06T21:16:01.421Z,98955.59
2022-10-06T21:19:05.267Z,98961.53
2022-10-06T21:22:07.357Z,98924.94
2022-10-06T21:25:09.696Z,98903.59
2022-10-06T21:28:11.809Z,98895.72
2022-10-06T21:31:16.049Z,98894.38
2022-10-06T21:34:18.167Z,98910.28
2022-10-06T21:37:20.193Z,98939.47
2022-10-06T21:40:22.360Z,98925.22
2022-10-06T21:43:24.971Z,98906.81
2022-10-06T21:46:45.589Z,98898.34
2022-10-06T21:49:47.705Z,98918.88
2022-10-06T21:52:49.794Z,98900.53
2022-10-06T21:55:54.070Z,98903.38
2022-10-06T21:58:56.529Z,98898.25
2022-10-06T22:01:59.489Z,98903.22
2022-10-06T22:05:01.677Z,98896.50
2022-10-06T22:08:03.740Z,98890.38
2022-10-06T22:11:27.739Z,98880.97
2022-10-06T22:14:29.807Z,98882.09
2022-10-06T22:17:31.953Z,98873.41
2022-10-06T22:20:35.006Z,98862.22
2022-10-06T22:23:37.039Z,98860.06
2022-10-06T22:26:40.147Z,98864.09
2022-10-06T22:29:42.818Z,98858.97
2022-10-06T22:32:44.879Z,98850.47
2022-10-06T22:35:51.219Z,98841.63
2022-10-06T22:38:53.525Z,98833.84
2022-10-06T22:41:55.674Z,98828.31
2022-10-06T22:44:57.705Z,98821.81
2022-10-06T22:47:59.738Z,98836.31
2022-10-06T22:51:01.822Z,98822.97
2022-10-06T22:54:04.197Z,98820.41
2022-10-06T22:57:07.030Z,98799.94
2022-10-06T23:00:09.853Z,98818.19
2022-10-06T23:03:11.997Z,98811.66
2022-10-06T23:06:15.773Z,98802.59
2022-10-06T23:09:17.836Z,98825.94
2022-10-06T23:12:19.914Z,98813.00
2022-10-06T23:15:22.126Z,98805.47
2022-10-06T23:18:24.173Z,98807.59
2022-10-06T23:21:27.577Z,98797.53
2022-10-06T23:24:29.958Z,98823.28
2022-10-06T23:27:32.005Z,98784.69
2022-10-06T23:30:37.281Z,98764.91
2022-10-06T23:33:39.456Z,98769.22
2022-10-06T23:36:41.496Z,98752.34
2022-10-06T23:39:43.537Z,98766.97
2022-10-06T23:42:45.569Z,98750.81
2022-10-06T23:45:47.780Z,98744.81
2022-10-06T23:48:49.905Z,98731.34
2022-10-06T23:51:51.949Z,98731.38
2022-10-06T23:54:53.996Z,98724.66
2022-10-06T23:57:56.049Z,98717.84
